createdAt,value
2022-08-25T00:01:58.458Z,101920.53
2022-08-25T00:04:29.777Z,101921.28
2022-08-25T00:07:02.213Z,101920.94
2022-08-25T00:09:32.015Z,101921.50
2022-08-25T00:11:59.294Z,101920.16
2022-08-25T00:14:30.389Z,101918.63
2022-08-25T00:16:57.620Z,101921.72
2022-08-25T00:19:28.693Z,101919.16
2022-08-25T00:21:56.188Z,101921.06
2022-08-25T00:24:24.628Z,101922.94
2022-08-25T00:26:55.122Z,101929.63
2022-08-25T00:29:23.516Z,101929.16
2022-08-25T00:31:51.142Z,101930.34
2022-08-25T00:34:22.757Z,101923.16
2022-08-25T00:36:51.792Z,101924.34
2022-08-25T00:39:21.250Z,101920.78
2022-08-25T00:41:50.439Z,101924.72
2022-08-25T00:44:18.974Z,101927.81
2022-08-25T00:46:55.010Z,101924.56
2022-08-25T00:49:49.857Z,101926.66
2022-08-25T00:52:19.314Z,101934.19
2022-08-25T00:55:09.327Z,101927.03
2022-08-25T00:57:43.447Z,101926.31
2022-08-25T01:00:24.380Z,101931.81
2022-08-25T01:02:51.878Z,101926.31
2022-08-25T01:05:19.710Z,101938.31
2022-08-25T01:07:46.883Z,101935.94
2022-08-25T01:10:14.116Z,101944.16
2022-08-25T01:12:41.515Z,101935.28
2022-08-25T01:15:10.476Z,101936.28
2022-08-25T01:17:51.481Z,101936.28
2022-08-25T01:20:20.655Z,101932.53
2022-08-25T01:22:50.923Z,101939.88
2022-08-25T01:25:34.329Z,101934.75
2022-08-25T01:28:01.236Z,101943.16
2022-08-25T01:30:28.168Z,101944.88
2022-08-25T01:32:55.026Z,101931.34
2022-08-25T01:35:21.793Z,101942.66
2022-08-25T01:37:48.597Z,101942.66
2022-08-25T01:40:15.440Z,101942.66
2022-08-25T01:43:02.346Z,101941.13
2022-08-25T01:45:29.801Z,101939.59
2022-08-25T01:47:56.954Z,101949.03
2022-08-25T01:50:23.885Z,101938.41
2022-08-25T01:53:09.161Z,101940.47
2022-08-25T01:55:51.838Z,101950.25
2022-08-25T01:58:31.768Z,101950.41
2022-08-25T02:01:01.848Z,101947.69
2022-08-25T02:03:29.670Z,101954.88
2022-08-25T02:06:01.458Z,101945.97
2022-08-25T02:08:31.204Z,101945.13
2022-08-25T02:11:00.169Z,101952.63
2022-08-25T02:13:31.583Z,101948.53
2022-08-25T02:16:02.589Z,101954.53
2022-08-25T02:18:29.706Z,101954.91
2022-08-25T02:20:56.591Z,101958.47
2022-08-25T02:23:23.448Z,101951.78
2022-08-25T02:25:52.290Z,101954.03
2022-08-25T02:28:19.182Z,101961.56
2022-08-25T02:30:46.131Z,101958.97
2022-08-25T02:33:13.701Z,101960.72
2022-08-25T02:35:40.489Z,101956.25
2022-08-25T02:38:08.351Z,101963.63
2022-08-25T02:40:35.305Z,101966.53
2022-08-25T02:43:02.350Z,101965.66
2022-08-25T02:45:29.844Z,101968.56
2022-08-25T02:47:57.039Z,101966.53
2022-08-25T02:50:23.764Z,101964.13
2022-08-25T02:52:52.333Z,101974.06
2022-08-25T02:55:20.172Z,101973.22
2022-08-25T02:57:48.327Z,101976.13
2022-08-25T03:00:16.477Z,101973.56
2022-08-25T03:02:46.892Z,101969.28
2022-08-25T03:05:15.833Z,101978.50
2022-08-25T03:07:42.974Z,101976.97
2022-08-25T03:10:14.846Z,101977.84
2022-08-25T03:12:42.124Z,101973.72
2022-08-25T03:15:12.806Z,101970.28
2022-08-25T03:17:40.857Z,101980.56
2022-08-25T03:20:10.931Z,101972.34
2022-08-25T03:22:38.235Z,101972.53
2022-08-25T03:25:24.450Z,101970.63
2022-08-25T03:27:52.126Z,101979.38
2022-08-25T03:30:20.052Z,101968.56
2022-08-25T03:32:47.325Z,101973.34
2022-08-25T03:35:14.668Z,101970.78
2022-08-25T03:37:41.757Z,101970.25
2022-08-25T03:40:15.412Z,101972.31
2022-08-25T03:42:45.423Z,101969.94
2022-08-25T03:45:13.718Z,101973.84
2022-08-25T03:47:40.769Z,101976.75
2022-08-25T03:50:10.135Z,101971.28
2022-08-25T03:52:41.790Z,101974.19
2022-08-25T03:55:12.215Z,101968.03
2022-08-25T03:57:39.580Z,101969.03
2022-08-25T04:00:09.109Z,101961.00
2022-08-25T04:02:35.946Z,101955.88
2022-08-25T04:05:02.900Z,101953.31
2022-08-25T04:07:30.895Z,101958.94
2022-08-25T04:09:57.612Z,101953.81
2022-08-25T04:12:24.807Z,101958.25
2022-08-25T04:14:52.751Z,101959.28
2022-08-25T04:17:19.576Z,101959.44
2022-08-25T04:19:46.473Z,101956.19
2022-08-25T04:22:13.379Z,101953.63
2022-08-25T04:24:41.526Z,101960.97
2022-08-25T04:27:08.460Z,101957.53
2022-08-25T04:29:36.423Z,101955.81
2022-08-25T04:32:03.595Z,101954.09
2022-08-25T04:34:31.510Z,101953.44
2022-08-25T04:37:04.086Z,101953.44
2022-08-25T04:39:31.102Z,101955.16
2022-08-25T04:41:57.968Z,101957.88
2022-08-25T04:44:26.552Z,101952.75
2022-08-25T04:46:53.586Z,101953.59
2022-08-25T04:49:20.295Z,101959.25
2022-08-25T04:51:47.245Z,101949.66
2022-08-25T04:54:21.865Z,101952.56
2022-08-25T04:56:50.644Z,101958.38
2022-08-25T04:59:22.666Z,101954.75
2022-08-25T05:01:52.384Z,101960.56
2022-08-25T05:04:28.320Z,101968.06
2022-08-25T05:06:56.804Z,101957.28
2022-08-25T05:09:26.047Z,101961.22
2022-08-25T05:11:53.691Z,101960.53
2022-08-25T05:14:25.633Z,101961.53
2022-08-25T05:16:55.349Z,101962.91
2022-08-25T05:19:24.063Z,101964.94
2022-08-25T05:21:51.495Z,101963.22
2022-08-25T05:24:18.914Z,101966.97
2022-08-25T05:26:46.044Z,101960.00
2022-08-25T05:29:14.827Z,101964.59
2022-08-25T05:31:46.993Z,101969.38
2022-08-25T05:34:15.209Z,101970.94
2022-08-25T05:36:43.696Z,101970.06
2022-08-25T05:39:11.155Z,101967.31
2022-08-25T05:41:38.707Z,101976.53
2022-08-25T05:44:05.771Z,101969.19
2022-08-25T05:46:33.312Z,101962.84
2022-08-25T05:49:00.413Z,101966.13
2022-08-25T05:51:27.364Z,101967.84
2022-08-25T05:53:54.278Z,101972.44
2022-08-25T05:56:21.404Z,101981.38
2022-08-25T05:58:49.561Z,101984.09
2022-08-25T06:01:41.083Z,101980.34
2022-08-25T06:04:10.630Z,101984.78
2022-08-25T06:06:37.638Z,101983.75
2022-08-25T06:09:06.694Z,101989.25
2022-08-25T06:11:33.699Z,101996.44
2022-08-25T06:14:00.548Z,101997.97
2022-08-25T06:16:27.343Z,101995.94
2022-08-25T06:18:55.581Z,101993.03
2022-08-25T06:21:22.446Z,101993.72
2022-08-25T06:23:49.540Z,101996.31
2022-08-25T06:26:20.714Z,101998.88
2022-08-25T06:28:49.784Z,101997.69
2022-08-25T06:31:17.781Z,102001.97
2022-08-25T06:33:44.857Z,102005.72
2022-08-25T06:36:11.664Z,102000.94
2022-08-25T06:38:38.673Z,101998.91
2022-08-25T06:41:08.404Z,102005.03
2022-08-25T06:43:35.453Z,102006.94
2022-08-25T06:46:14.084Z,102004.03
2022-08-25T06:48:41.209Z,102008.50
2022-08-25T06:51:10.629Z,102007.47
2022-08-25T06:53:41.647Z,102009.72
2022-08-25T06:56:09.215Z,102009.19
2022-08-25T06:58:38.320Z,102017.06
2022-08-25T07:01:22.600Z,102004.94
2022-08-25T07:03:57.542Z,102005.81
2022-08-25T07:06:26.013Z,102002.91
2022-08-25T07:08:53.220Z,102003.41
2022-08-25T07:11:22.997Z,102010.44
2022-08-25T07:13:51.389Z,102013.72
2022-08-25T07:16:20.623Z,102011.66
2022-08-25T07:18:48.350Z,102020.22
2022-08-25T07:21:16.133Z,102019.06
2022-08-25T07:23:43.339Z,102035.34
2022-08-25T07:26:36.337Z,102031.44
2022-08-25T07:29:08.399Z,102035.75
2022-08-25T07:31:35.523Z,102033.66
2022-08-25T07:34:21.202Z,102048.91
2022-08-25T07:36:48.237Z,102037.78
2022-08-25T07:39:15.026Z,102043.59
2022-08-25T07:41:42.495Z,102043.59
2022-08-25T07:44:12.198Z,102047.16
2022-08-25T07:46:40.135Z,102050.38
2022-08-25T07:49:16.415Z,102055.03
2022-08-25T07:52:04.112Z,102062.78
2022-08-25T07:54:33.953Z,102062.63
2022-08-25T07:57:05.970Z,102071.53
2022-08-25T07:59:39.741Z,102074.78
2022-08-25T08:02:18.617Z,102085.25
2022-08-25T08:04:48.947Z,102081.66
2022-08-25T08:07:19.196Z,102079.25
2022-08-25T08:09:46.846Z,102077.72
2022-08-25T08:12:13.843Z,102086.13
2022-08-25T08:14:44.981Z,102079.44
2022-08-25T08:17:13.779Z,102082.50
2022-08-25T08:19:44.812Z,102079.06
2022-08-25T08:22:15.348Z,102078.72
2022-08-25T08:24:54.811Z,102082.63
2022-08-25T08:27:23.639Z,102079.16
2022-08-25T08:29:50.492Z,102073.97
2022-08-25T08:32:18.555Z,102073.75
2022-08-25T08:34:51.265Z,102087.81
2022-08-25T08:37:22.830Z,102084.56
2022-08-25T08:39:52.842Z,102087.25
2022-08-25T08:42:32.353Z,102076.69
2022-08-25T08:45:09.473Z,102088.28
2022-08-25T08:48:23.620Z,102088.38
2022-08-25T08:51:23.147Z,102079.72
2022-08-25T08:54:15.878Z,102079.84
2022-08-25T08:56:48.546Z,102074.69
2022-08-25T08:59:30.754Z,102076.34
2022-08-25T09:02:04.345Z,102076.47
2022-08-25T09:04:40.545Z,102077.97
2022-08-25T09:07:13.166Z,102077.91
2022-08-25T09:09:42.511Z,102081.03
2022-08-25T09:12:12.159Z,102077.91
2022-08-25T09:15:03.127Z,102075.47
2022-08-25T09:18:17.132Z,102079.66
2022-08-25T09:21:21.550Z,102081.22
2022-08-25T09:24:14.130Z,102072.00
2022-08-25T09:27:06.957Z,102073.72
2022-08-25T09:29:49.256Z,102068.50
2022-08-25T09:32:24.130Z,102078.38
2022-08-25T09:35:01.383Z,102070.47
2022-08-25T09:37:28.998Z,102082.75
2022-08-25T09:39:55.908Z,102070.75
2022-08-25T09:42:51.547Z,102066.13
2022-08-25T09:45:35.061Z,102069.06
2022-08-25T09:48:03.096Z,102065.41
2022-08-25T09:50:34.860Z,102055.03
2022-08-25T09:53:17.463Z,102050.69
2022-08-25T09:55:59.864Z,102053.03
2022-08-25T09:58:27.893Z,102049.94
2022-08-25T10:01:19.793Z,102060.75
2022-08-25T10:03:57.635Z,102061.22
2022-08-25T10:06:26.045Z,102055.38
2022-08-25T10:08:58.172Z,102054.13
2022-08-25T10:11:42.590Z,102049.88
2022-08-25T10:14:36.589Z,102048.66
2022-08-25T10:17:29.504Z,102040.19
2022-08-25T10:20:12.283Z,102026.78
2022-08-25T10:22:42.614Z,102040.81
2022-08-25T10:25:12.458Z,102030.81
2022-08-25T10:28:26.506Z,102024.00
2022-08-25T10:31:06.512Z,102032.94
2022-08-25T10:34:01.599Z,102023.81
2022-08-25T10:36:38.405Z,102027.41
2022-08-25T10:39:34.668Z,102020.19
2022-08-25T10:42:30.299Z,102021.19
2022-08-25T10:45:32.000Z,102015.41
2022-08-25T10:48:13.294Z,102008.56
2022-08-25T10:50:54.945Z,102006.41
2022-08-25T10:53:34.732Z,102009.88
2022-08-25T10:56:08.254Z,102002.25
2022-08-25T10:59:22.610Z,102008.34
2022-08-25T11:02:08.070Z,101997.81
2022-08-25T11:04:51.839Z,101995.31
2022-08-25T11:08:12.073Z,101989.31
2022-08-25T11:11:13.768Z,101990.53
2022-08-25T11:13:53.291Z,101994.66
2022-08-25T11:16:35.247Z,101989.59
2022-08-25T11:19:29.060Z,101999.00
2022-08-25T11:22:19.335Z,101985.66
2022-08-25T11:25:10.198Z,101991.13
2022-08-25T11:27:41.996Z,101986.69
2022-08-25T11:30:14.683Z,101988.75
2022-08-25T11:32:47.099Z,101986.69
2022-08-25T11:35:14.822Z,101972.97
2022-08-25T11:37:59.668Z,101973.22
2022-08-25T11:41:02.016Z,101967.72
2022-08-25T11:44:00.119Z,101963.50
2022-08-25T11:46:39.670Z,101959.72
2022-08-25T11:49:44.234Z,101954.03
2022-08-25T11:52:34.656Z,101966.59
2022-08-25T11:55:26.499Z,101969.44
2022-08-25T11:58:28.273Z,101961.69
2022-08-25T12:00:59.882Z,101952.28
2022-08-25T12:03:32.638Z,101956.16
2022-08-25T12:06:14.839Z,101962.53
2022-08-25T12:09:04.317Z,101954.25
2022-08-25T12:11:58.546Z,101941.34
2022-08-25T12:14:28.260Z,101948.19
2022-08-25T12:16:55.312Z,101957.75
2022-08-25T12:19:26.979Z,101958.97
2022-08-25T12:22:03.398Z,101950.75
2022-08-25T12:24:47.597Z,101954.88
2022-08-25T12:27:33.576Z,101955.31
2022-08-25T12:30:18.595Z,101942.63
2022-08-25T12:33:08.047Z,101950.53
2022-08-25T12:36:07.471Z,101946.41
2022-08-25T12:38:52.152Z,101952.38
2022-08-25T12:41:26.643Z,101954.66
2022-08-25T12:44:09.948Z,101946.53
2022-08-25T12:46:39.577Z,101942.97
2022-08-25T12:49:15.514Z,101947.69
2022-08-25T12:51:57.454Z,101950.22
2022-08-25T12:54:52.295Z,101949.31
2022-08-25T12:57:42.031Z,101956.25
2022-08-25T13:00:16.283Z,101950.22
2022-08-25T13:02:56.313Z,101955.31
2022-08-25T13:05:26.001Z,101949.69
2022-08-25T13:08:33.748Z,101951.84
2022-08-25T13:11:25.221Z,101952.16
2022-08-25T13:14:02.070Z,101951.63
2022-08-25T13:16:30.455Z,101942.50
2022-08-25T13:19:01.703Z,101939.28
2022-08-25T13:21:38.454Z,101938.25
2022-08-25T13:24:28.104Z,101938.81
2022-08-25T13:26:57.987Z,101932.97
2022-08-25T13:29:35.842Z,101928.94
2022-08-25T13:32:09.297Z,101926.63
2022-08-25T13:34:42.523Z,101921.22
2022-08-25T13:37:31.343Z,101921.09
2022-08-25T13:40:33.452Z,101930.41
2022-08-25T13:43:07.832Z,101928.94
2022-08-25T13:45:41.866Z,101913.44
2022-08-25T13:48:23.090Z,101921.28
2022-08-25T13:50:53.118Z,101914.44
2022-08-25T13:53:25.575Z,101922.69
2022-08-25T13:55:57.174Z,101913.59
2022-08-25T13:58:38.859Z,101917.88
2022-08-25T14:01:48.051Z,101910.28
2022-08-25T14:04:26.266Z,101902.66
2022-08-25T14:07:22.722Z,101917.44
2022-08-25T14:10:00.949Z,101895.66
2022-08-25T14:12:38.118Z,101901.09
2022-08-25T14:15:33.899Z,101902.75
2022-08-25T14:18:21.695Z,101899.03
2022-08-25T14:20:56.494Z,101891.34
2022-08-25T14:23:30.818Z,101895.44
2022-08-25T14:25:58.786Z,101887.88
2022-08-25T14:28:32.029Z,101894.66
2022-08-25T14:31:28.132Z,101893.94
2022-08-25T14:33:59.933Z,101882.72
2022-08-25T14:36:30.330Z,101883.53
2022-08-25T14:38:57.904Z,101882.19
2022-08-25T14:41:26.685Z,101881.66
2022-08-25T14:43:54.217Z,101887.59
2022-08-25T14:46:27.068Z,101879.84
2022-08-25T14:49:01.031Z,101878.00
2022-08-25T14:51:32.654Z,101892.72
2022-08-25T14:54:06.192Z,101890.34
2022-08-25T14:56:34.188Z,101874.66
2022-08-25T14:59:01.516Z,101884.81
2022-08-25T15:01:32.044Z,101864.00
2022-08-25T15:04:05.659Z,101866.19
2022-08-25T15:06:35.612Z,101877.50
2022-08-25T15:09:12.882Z,101874.13
2022-08-25T15:11:45.914Z,101868.41
2022-08-25T15:14:15.892Z,101864.25
2022-08-25T15:16:51.394Z,101870.13
2022-08-25T15:19:20.608Z,101876.16
2022-08-25T15:21:48.546Z,101868.56
2022-08-25T15:24:17.680Z,101866.56
2022-08-25T15:26:56.428Z,101866.53
2022-08-25T15:29:27.469Z,101864.66
2022-08-25T15:31:54.313Z,101869.59
2022-08-25T15:34:21.565Z,101869.56
2022-08-25T15:36:48.726Z,101863.88
2022-08-25T15:39:18.870Z,101861.97
2022-08-25T15:41:49.710Z,101863.63
2022-08-25T15:44:16.716Z,101863.88
2022-08-25T15:46:47.168Z,101864.72
2022-08-25T15:49:20.744Z,101859.41
2022-08-25T15:51:54.813Z,101851.91
2022-08-25T15:54:23.513Z,101851.53
2022-08-25T15:56:50.585Z,101854.34
2022-08-25T15:59:19.136Z,101849.50
2022-08-25T16:01:53.748Z,101841.38
2022-08-25T16:04:26.415Z,101839.69
2022-08-25T16:06:54.031Z,101844.00
2022-08-25T16:09:23.553Z,101841.84
2022-08-25T16:11:55.636Z,101836.78
2022-08-25T16:14:24.088Z,101825.41
2022-08-25T16:16:51.712Z,101833.03
2022-08-25T16:19:18.793Z,101822.97
2022-08-25T16:21:47.566Z,101829.38
2022-08-25T16:24:14.713Z,101834.38
2022-08-25T16:26:48.006Z,101826.84
2022-08-25T16:29:16.488Z,101818.84
2022-08-25T16:31:43.926Z,101821.50
2022-08-25T16:34:10.731Z,101827.84
2022-08-25T16:36:39.993Z,101826.59
2022-08-25T16:39:10.013Z,101831.13
2022-08-25T16:41:37.432Z,101830.50
2022-08-25T16:44:11.198Z,101826.41
2022-08-25T16:46:40.793Z,101822.59
2022-08-25T16:49:09.347Z,101825.06
2022-08-25T16:51:39.037Z,101820.00
2022-08-25T16:54:26.253Z,101814.28
2022-08-25T16:56:54.953Z,101821.38
2022-08-25T16:59:23.448Z,101820.53
2022-08-25T17:01:52.282Z,101816.91
2022-08-25T17:04:19.537Z,101817.28
2022-08-25T17:06:51.547Z,101818.75
2022-08-25T17:09:23.006Z,101815.22
2022-08-25T17:11:54.338Z,101810.22
2022-08-25T17:14:21.979Z,101811.28
2022-08-25T17:16:51.212Z,101819.78
2022-08-25T17:19:18.590Z,101818.31
2022-08-25T17:21:46.462Z,101821.38
2022-08-25T17:24:14.500Z,101808.66
2022-08-25T17:26:42.484Z,101814.13
2022-08-25T17:29:10.462Z,101820.63
2022-08-25T17:31:40.013Z,101818.69
2022-08-25T17:34:09.579Z,101824.22
2022-08-25T17:36:37.235Z,101817.91
2022-08-25T17:39:05.407Z,101813.03
2022-08-25T17:41:33.458Z,101825.44
2022-08-25T17:44:04.942Z,101811.78
2022-08-25T17:46:32.258Z,101807.28
2022-08-25T17:48:59.227Z,101809.34
2022-08-25T17:51:26.292Z,101804.81
2022-08-25T17:53:57.169Z,101801.78
2022-08-25T17:56:27.808Z,101797.94
2022-08-25T17:58:56.299Z,101803.97
2022-08-25T18:01:29.352Z,101796.47
2022-08-25T18:03:58.972Z,101791.94
2022-08-25T18:06:27.389Z,101805.94
2022-08-25T18:08:59.939Z,101808.69
2022-08-25T18:11:28.870Z,101809.00
2022-08-25T18:13:57.572Z,101813.91
2022-08-25T18:16:25.119Z,101811.00
2022-08-25T18:18:52.808Z,101815.28
2022-08-25T18:21:21.378Z,101817.91
2022-08-25T18:23:50.471Z,101818.19
2022-08-25T18:26:24.747Z,101816.06
2022-08-25T18:28:56.266Z,101817.38
2022-08-25T18:31:23.604Z,101807.59
2022-08-25T18:33:51.150Z,101808.47
2022-08-25T18:36:21.011Z,101799.31
2022-08-25T18:39:07.525Z,101808.31
2022-08-25T18:41:39.084Z,101805.78
2022-08-25T18:44:07.472Z,101807.28
2022-08-25T18:46:35.059Z,101801.09
2022-08-25T18:49:02.964Z,101809.44
2022-08-25T18:51:33.041Z,101797.75
2022-08-25T18:54:01.485Z,101798.19
2022-08-25T18:56:28.952Z,101800.78
2022-08-25T18:58:56.054Z,101799.50
2022-08-25T19:01:23.397Z,101808.06
2022-08-25T19:03:50.639Z,101799.84
2022-08-25T19:06:17.691Z,101803.66
2022-08-25T19:08:46.015Z,101807.28
2022-08-25T19:11:13.111Z,101809.66
2022-08-25T19:13:40.546Z,101804.97
2022-08-25T19:16:32.208Z,101815.41
2022-08-25T19:19:03.630Z,101818.41
2022-08-25T19:21:31.285Z,101808.19
2022-08-25T19:23:59.932Z,101811.16
2022-08-25T19:26:27.288Z,101810.75
2022-08-25T19:28:54.170Z,101813.34
2022-08-25T19:31:23.444Z,101809.88
2022-08-25T19:33:52.673Z,101811.81
2022-08-25T19:36:27.866Z,101816.09
2022-08-25T19:38:58.332Z,101819.72
2022-08-25T19:41:26.591Z,101822.06
2022-08-25T19:43:57.048Z,101830.78
2022-08-25T19:46:32.897Z,101823.78
2022-08-25T19:49:09.168Z,101834.00
2022-08-25T19:51:45.659Z,101824.22
2022-08-25T19:54:16.474Z,101828.03
2022-08-25T19:56:54.244Z,101824.63
2022-08-25T19:59:25.843Z,101822.72
2022-08-25T20:01:53.151Z,101831.22
2022-08-25T20:04:20.261Z,101829.53
2022-08-25T20:06:48.288Z,101825.91
2022-08-25T20:09:21.146Z,101828.25
2022-08-25T20:12:02.739Z,101824.22
2022-08-25T20:14:29.862Z,101834.22
2022-08-25T20:16:56.586Z,101841.00
2022-08-25T20:19:23.375Z,101842.28
2022-08-25T20:21:50.253Z,101833.78
2022-08-25T20:24:36.167Z,101835.50
2022-08-25T20:27:04.414Z,101845.69
2022-08-25T20:29:31.884Z,101836.34
2022-08-25T20:31:59.022Z,101841.63
2022-08-25T20:34:28.987Z,101843.53
2022-08-25T20:36:56.095Z,101840.16
2022-08-25T20:39:24.626Z,101842.03
2022-08-25T20:41:51.907Z,101843.31
2022-08-25T20:44:19.428Z,101837.13
2022-08-25T20:46:51.506Z,101845.63
2022-08-25T20:49:20.294Z,101837.31
2022-08-25T20:51:47.229Z,101840.50
2022-08-25T20:54:17.543Z,101842.66
2022-08-25T20:56:44.398Z,101854.09
2022-08-25T20:59:12.937Z,101854.28
2022-08-25T21:01:41.381Z,101853.22
2022-08-25T21:04:11.290Z,101858.34
2022-08-25T21:06:41.574Z,101857.66
2022-08-25T21:09:15.678Z,101855.75
2022-08-25T21:11:43.592Z,101866.16
2022-08-25T21:14:12.935Z,101862.31
2022-08-25T21:16:41.088Z,101869.34
2022-08-25T21:19:11.100Z,101860.19
2022-08-25T21:21:40.066Z,101854.69
2022-08-25T21:24:09.736Z,101862.75
2022-08-25T21:26:48.937Z,101853.22
2022-08-25T21:29:17.445Z,101849.16
2022-08-25T21:31:45.724Z,101845.97
2022-08-25T21:34:13.684Z,101853.38
2022-08-25T21:36:42.188Z,101852.97
2022-08-25T21:39:09.921Z,101844.22
2022-08-25T21:41:39.480Z,101847.41
2022-08-25T21:44:07.664Z,101844.88
2022-08-25T21:46:36.484Z,101851.63
2022-08-25T21:49:05.882Z,101845.88
2022-08-25T21:51:40.674Z,101848.44
2022-08-25T21:54:11.549Z,101850.72
2022-08-25T21:56:49.724Z,101844.78
2022-08-25T21:59:21.045Z,101843.50
2022-08-25T22:01:47.815Z,101838.56
2022-08-25T22:04:15.797Z,101846.66
2022-08-25T22:06:42.704Z,101842.63
2022-08-25T22:09:12.847Z,101847.31
2022-08-25T22:11:42.703Z,101842.00
2022-08-25T22:14:10.514Z,101840.75
2022-08-25T22:16:38.592Z,101835.44
2022-08-25T22:19:08.480Z,101841.13
2022-08-25T22:21:36.420Z,101838.56
2022-08-25T22:24:03.711Z,101843.25
2022-08-25T22:26:32.258Z,101840.91
2022-08-25T22:29:00.793Z,101841.31
2022-08-25T22:31:28.529Z,101844.44
2022-08-25T22:33:57.748Z,101843.13
2022-08-25T22:36:34.746Z,101840.59
2022-08-25T22:39:02.954Z,101838.03
2022-08-25T22:41:31.596Z,101840.38
2022-08-25T22:44:00.474Z,101843.13
2022-08-25T22:46:32.573Z,101842.47
2022-08-25T22:49:00.218Z,101840.75
2022-08-25T22:51:31.627Z,101835.22
2022-08-25T22:54:00.553Z,101830.38
2022-08-25T22:56:34.767Z,101832.88
2022-08-25T22:59:10.033Z,101830.34
2022-08-25T23:01:38.342Z,101832.69
2022-08-25T23:04:07.411Z,101830.38
2022-08-25T23:06:36.909Z,101835.91
2022-08-25T23:09:06.701Z,101832.50
2022-08-25T23:11:35.788Z,101830.22
2022-08-25T23:14:08.397Z,101823.59
2022-08-25T23:16:35.203Z,101825.69
2022-08-25T23:19:02.223Z,101830.13
2022-08-25T23:21:47.951Z,101827.16
2022-08-25T23:24:29.555Z,101830.34
2022-08-25T23:27:02.029Z,101823.56
2022-08-25T23:29:30.222Z,101823.34
2022-08-25T23:31:57.774Z,101822.31
2022-08-25T23:34:25.456Z,101824.00
2022-08-25T23:36:52.663Z,101824.88
2022-08-25T23:39:21.706Z,101822.09
2022-08-25T23:41:50.252Z,101822.31
2022-08-25T23:44:18.068Z,101829.09
2022-08-25T23:46:47.333Z,101818.06
2022-08-25T23:49:18.196Z,101823.09
2022-08-25T23:51:46.977Z,101819.06
2022-08-25T23:54:13.985Z,101817.38
2022-08-25T23:56:44.797Z,101812.91
2022-08-25T23:59:24.480Z,101815.88
